Česky Dansk Deutsch English Español Suomi Français Magyar Italiano Nederlands norsk Polski Português svenska Türkçe

 

Het Weer

Colonia (Uruguay)

22:00, 21 juli 2016 (GMT)

NWNNE
WE
SWSSE
Home            
Colonia Aeroparque Bs. As. Aerodrome La Plata Aerodrome Buenos Aires Observatorio San Fernando, BA Don Torcuato Aerodrome El Palomar Aerodrome Ezeiza Aerodrome Mercedes Melilla Carrasco Durazno Gualeguaychu Aerodrome Dolores Aerodrome Paysandu Capitan Corbeta Maldonado / Punta Est Junin Aerodrome Villaguay Aerodrome Azul Airport Villa Gesell Rosario Aerodrome Tandil Aerodrome

Om een weerknop op uw website of weblog te plaatsen, copieer onderstaande code en plak die in uw pagina. In het eerste vakje staat HTML-code, in het tweede vakje UBB-code.


Add to Google

Details

Visibility:Greater than 10000 m, 10 km, 32800 ft, 6.2 miles
Clouds:CAVOC
Temperature:10°C, 50°F
Dew-point:4°C, 39°F
Atmospheric pressure:1022 hPa, 766.6 mmHg, 30.18 inHg, 1.009 atm
Relative humidity:66.2 %
METAR:SUCA 212200Z 00000KT CAVOK 10/04 Q1022

Snelkoppelingen

Actuele weersinformatie van de hele wereld. Voeg locaties toe met het plus (+) symbool. Deze snelkoppelingen kunnen worden toegevoegd aan Google.

Lid van de Technetium groep

website free tracking
StatCounter NetStat W3C Validator

19-09-2019 06:34:54
astro.technetium.be money.technetium.be phote.technetium.be tafeltennistafel.technetium.be www.ligfiets.net